createdAt,value
2019-01-29T00:00:52.367Z,85.79
2019-01-29T00:03:23.861Z,85.70
2019-01-29T00:05:55.542Z,85.72
2019-01-29T00:08:27.046Z,85.69
2019-01-29T00:10:58.704Z,85.09
2019-01-29T00:13:30.196Z,85.17
2019-01-29T00:16:01.930Z,85.46
2019-01-29T00:18:34.198Z,85.45
2019-01-29T00:21:06.076Z,85.45
2019-01-29T00:23:37.488Z,84.99
2019-01-29T00:26:09.045Z,85.11
2019-01-29T00:28:40.624Z,84.45
2019-01-29T00:31:12.039Z,83.57
2019-01-29T00:33:43.388Z,83.44
2019-01-29T00:36:15.178Z,83.29
2019-01-29T00:38:47.675Z,82.82
2019-01-29T00:41:19.349Z,83.46
2019-01-29T00:43:51.106Z,83.62
2019-01-29T00:46:22.720Z,83.33
2019-01-29T00:48:54.392Z,82.85
2019-01-29T00:51:26.056Z,82.44
2019-01-29T00:53:57.668Z,82.75
2019-01-29T00:56:29.216Z,82.66
2019-01-29T00:59:00.883Z,82.49
2019-01-29T01:01:32.348Z,82.29
2019-01-29T01:04:03.840Z,82.35
2019-01-29T01:06:35.210Z,83.37
2019-01-29T01:09:09.511Z,83.24
2019-01-29T01:11:40.943Z,83.13
2019-01-29T01:14:13.637Z,82.92
2019-01-29T01:16:45.575Z,82.97
2019-01-29T01:19:17.221Z,82.92
2019-01-29T01:21:48.887Z,82.54
2019-01-29T01:24:20.741Z,82.54
2019-01-29T01:26:52.411Z,82.61
2019-01-29T01:29:24.098Z,82.66
2019-01-29T01:31:55.639Z,82.59
2019-01-29T01:34:27.234Z,82.88
2019-01-29T01:36:58.993Z,82.67
2019-01-29T01:39:30.631Z,82.36
2019-01-29T01:42:02.432Z,82.16
2019-01-29T01:44:33.996Z,82.13
2019-01-29T01:47:05.373Z,82.10
2019-01-29T01:49:36.934Z,82.41
2019-01-29T01:52:08.448Z,82.50
2019-01-29T01:54:40.146Z,82.33
2019-01-29T01:57:11.582Z,82.25
2019-01-29T01:59:43.141Z,82.32
2019-01-29T02:02:14.747Z,82.35
2019-01-29T02:04:46.342Z,82.94
2019-01-29T02:07:17.673Z,82.89
2019-01-29T02:09:48.986Z,82.78
2019-01-29T02:12:20.260Z,83.43
2019-01-29T02:14:51.710Z,83.90
2019-01-29T02:17:23.192Z,83.46
2019-01-29T02:19:54.807Z,84.18
2019-01-29T02:22:26.307Z,84.19
2019-01-29T02:24:57.981Z,84.32
2019-01-29T02:27:29.807Z,85.17
2019-01-29T02:30:01.408Z,85.36
2019-01-29T02:32:33.284Z,85.33
2019-01-29T02:35:05.047Z,84.78
2019-01-29T02:37:36.435Z,84.31
2019-01-29T02:40:10.955Z,83.58
2019-01-29T02:42:42.298Z,83.92
2019-01-29T02:45:14.878Z,83.92
2019-01-29T02:47:46.719Z,83.17
2019-01-29T02:50:19.128Z,83.36
2019-01-29T02:52:50.529Z,83.52
2019-01-29T02:55:21.963Z,83.19
2019-01-29T02:57:53.286Z,83.07
2019-01-29T03:00:26.628Z,83.08
2019-01-29T03:02:58.243Z,82.87
2019-01-29T03:05:30.896Z,82.81
2019-01-29T03:08:02.611Z,83.02
2019-01-29T03:10:34.154Z,82.49
2019-01-29T03:13:05.996Z,82.38
2019-01-29T03:15:37.490Z,82.54
2019-01-29T03:18:09.142Z,82.59
2019-01-29T03:20:40.637Z,82.81
2019-01-29T03:23:12.482Z,82.51
2019-01-29T03:25:44.161Z,83.22
2019-01-29T03:28:15.973Z,83.86
2019-01-29T03:30:47.721Z,83.79
2019-01-29T03:33:19.227Z,83.56
2019-01-29T03:35:52.112Z,83.65
2019-01-29T03:38:23.944Z,82.86
2019-01-29T03:40:55.514Z,82.65
2019-01-29T03:43:27.265Z,82.75
2019-01-29T03:45:59.041Z,82.47
2019-01-29T03:48:30.784Z,82.54
2019-01-29T03:51:02.142Z,81.64
2019-01-29T03:53:38.206Z,81.55
2019-01-29T03:56:07.305Z,81.47
2019-01-29T03:58:39.442Z,82.15
2019-01-29T04:01:11.110Z,82.87
2019-01-29T04:03:42.591Z,83.05
2019-01-29T04:06:14.037Z,82.62
2019-01-29T04:08:45.596Z,82.63
2019-01-29T04:11:17.182Z,82.37
2019-01-29T04:13:48.948Z,82.05
2019-01-29T04:16:20.565Z,82.27
2019-01-29T04:18:52.162Z,81.87
2019-01-29T04:21:23.571Z,81.96
2019-01-29T04:23:55.180Z,82.97
2019-01-29T04:26:26.822Z,83.80
2019-01-29T04:28:58.453Z,84.22
2019-01-29T04:31:30.144Z,84.42
2019-01-29T04:34:01.514Z,84.45
2019-01-29T04:36:32.760Z,84.39
2019-01-29T04:39:05.925Z,83.79
2019-01-29T04:41:37.217Z,83.45
2019-01-29T04:44:08.778Z,82.96
2019-01-29T04:46:40.223Z,83.24
2019-01-29T04:49:11.855Z,82.98
2019-01-29T04:51:43.149Z,83.26
2019-01-29T04:54:14.814Z,83.87
2019-01-29T04:56:46.277Z,83.94
2019-01-29T04:59:17.883Z,83.66
2019-01-29T05:01:49.670Z,83.65
2019-01-29T05:04:21.308Z,83.16
2019-01-29T05:06:52.598Z,83.28
2019-01-29T05:09:23.978Z,83.24
2019-01-29T05:11:55.198Z,83.49
2019-01-29T05:14:26.865Z,83.27
2019-01-29T05:16:58.531Z,83.15
2019-01-29T05:19:30.266Z,83.37
2019-01-29T05:22:01.494Z,82.98
2019-01-29T05:24:33.140Z,83.14
2019-01-29T05:27:04.927Z,82.79
2019-01-29T05:29:36.623Z,82.45
2019-01-29T05:32:08.425Z,82.17
2019-01-29T05:34:39.863Z,83.04
2019-01-29T05:37:11.583Z,82.90
2019-01-29T05:39:43.108Z,82.45
2019-01-29T05:42:14.763Z,82.04
2019-01-29T05:44:46.563Z,81.95
2019-01-29T05:47:17.980Z,81.90
2019-01-29T05:49:49.689Z,82.24
2019-01-29T05:52:20.939Z,82.32
2019-01-29T05:54:52.258Z,82.34
2019-01-29T05:57:23.764Z,82.39
2019-01-29T05:59:55.310Z,82.34
2019-01-29T06:02:26.981Z,82.17
2019-01-29T06:04:58.697Z,81.77
2019-01-29T06:07:30.390Z,81.61
2019-01-29T06:10:01.608Z,82.30
2019-01-29T06:12:33.259Z,82.18
2019-01-29T06:15:05.448Z,82.36
2019-01-29T06:17:37.317Z,82.44
2019-01-29T06:20:11.901Z,82.33
2019-01-29T06:22:43.335Z,82.04
2019-01-29T06:25:15.000Z,81.66
2019-01-29T06:27:47.169Z,82.53
2019-01-29T06:30:20.126Z,81.87
2019-01-29T06:32:51.806Z,82.14
2019-01-29T06:35:23.273Z,82.91
2019-01-29T06:37:54.842Z,83.44
2019-01-29T06:40:28.083Z,83.35
2019-01-29T06:43:00.585Z,83.34
2019-01-29T06:45:32.551Z,83.34
2019-01-29T06:48:04.658Z,82.72
2019-01-29T06:50:36.262Z,82.80
2019-01-29T06:53:07.678Z,82.47
2019-01-29T06:55:39.256Z,82.15
2019-01-29T06:58:10.777Z,82.57
2019-01-29T07:00:42.934Z,82.25
2019-01-29T07:03:14.433Z,82.10
2019-01-29T07:05:45.894Z,81.85
2019-01-29T07:08:17.443Z,81.97
2019-01-29T07:10:49.201Z,82.10
2019-01-29T07:13:21.270Z,81.91
2019-01-29T07:16:12.555Z,81.54
2019-01-29T07:19:05.710Z,81.31
2019-01-29T07:21:37.340Z,81.24
2019-01-29T07:24:09.128Z,81.69
2019-01-29T07:26:40.783Z,81.36
2019-01-29T07:29:12.093Z,80.92
2019-01-29T07:31:43.827Z,80.43
2019-01-29T07:34:15.054Z,80.41
2019-01-29T07:36:46.517Z,80.16
2019-01-29T07:39:18.305Z,80.71
2019-01-29T07:41:49.855Z,81.00
2019-01-29T07:44:21.458Z,81.10
2019-01-29T07:46:52.930Z,81.26
2019-01-29T07:49:24.693Z,81.17
2019-01-29T07:51:56.529Z,80.73
2019-01-29T07:54:33.227Z,81.17
2019-01-29T07:57:01.850Z,81.67
2019-01-29T07:59:33.515Z,81.35
2019-01-29T08:02:05.752Z,81.62
2019-01-29T08:04:37.259Z,81.00
2019-01-29T08:07:09.021Z,80.63
2019-01-29T08:09:40.471Z,80.66
2019-01-29T08:12:12.093Z,80.78
2019-01-29T08:14:43.637Z,81.60
2019-01-29T08:17:15.257Z,81.60
2019-01-29T08:19:46.914Z,80.95
2019-01-29T08:22:18.405Z,80.75
2019-01-29T08:24:53.309Z,82.24
2019-01-29T08:27:23.603Z,81.61
2019-01-29T08:29:55.203Z,81.50
2019-01-29T08:32:26.683Z,81.49
2019-01-29T08:34:58.427Z,81.88
2019-01-29T08:37:30.252Z,81.55
2019-01-29T08:40:01.774Z,81.32
2019-01-29T08:42:33.392Z,80.95
2019-01-29T08:45:05.945Z,80.76
2019-01-29T08:47:37.464Z,80.70
2019-01-29T08:50:11.938Z,80.71
2019-01-29T08:52:43.457Z,80.43
2019-01-29T08:55:14.768Z,79.65
2019-01-29T08:57:46.086Z,80.03
2019-01-29T09:00:18.211Z,78.80
2019-01-29T09:02:49.868Z,78.56
2019-01-29T09:05:21.332Z,78.77
2019-01-29T09:07:52.814Z,78.60
2019-01-29T09:10:24.378Z,79.29
2019-01-29T09:12:55.956Z,79.84
2019-01-29T09:15:27.714Z,80.11
2019-01-29T09:17:59.652Z,80.40
2019-01-29T09:20:31.406Z,80.55
2019-01-29T09:23:03.339Z,83.88
2019-01-29T09:25:36.825Z,82.22
2019-01-29T09:28:08.433Z,82.33
2019-01-29T09:30:39.875Z,82.60
2019-01-29T09:33:11.354Z,82.84
2019-01-29T09:35:42.784Z,83.68
2019-01-29T09:38:14.113Z,84.50
2019-01-29T09:40:45.597Z,84.16
2019-01-29T09:43:17.577Z,85.15
2019-01-29T09:45:49.173Z,85.76
2019-01-29T09:48:20.917Z,87.66
2019-01-29T09:50:52.632Z,87.56
2019-01-29T09:53:24.047Z,87.04
2019-01-29T09:55:55.626Z,87.06
2019-01-29T09:58:27.160Z,86.88
2019-01-29T10:00:58.697Z,86.64
2019-01-29T10:03:30.414Z,86.87
2019-01-29T10:06:01.944Z,86.25
2019-01-29T10:08:33.472Z,87.05
2019-01-29T10:11:05.180Z,85.87
2019-01-29T10:13:36.787Z,85.31
2019-01-29T10:16:08.594Z,85.64
2019-01-29T10:18:39.959Z,84.68
2019-01-29T10:21:11.342Z,84.41
2019-01-29T10:23:42.844Z,84.16
2019-01-29T10:26:14.603Z,84.22
2019-01-29T10:28:45.910Z,83.82
2019-01-29T10:31:17.241Z,83.36
2019-01-29T10:33:48.872Z,83.46
2019-01-29T10:36:20.621Z,83.74
2019-01-29T10:38:52.098Z,84.56
2019-01-29T10:41:23.677Z,84.41
2019-01-29T10:43:56.382Z,83.93
2019-01-29T10:46:27.943Z,83.43
2019-01-29T10:48:59.538Z,84.06
2019-01-29T10:51:31.302Z,84.23
2019-01-29T10:54:03.044Z,84.25
2019-01-29T10:56:34.581Z,85.25
2019-01-29T10:59:06.400Z,85.96
2019-01-29T11:01:38.124Z,85.87
2019-01-29T11:04:09.803Z,86.16
2019-01-29T11:06:41.553Z,86.63
2019-01-29T11:09:15.100Z,87.61
2019-01-29T11:11:46.569Z,88.03
2019-01-29T11:14:17.840Z,87.23
2019-01-29T11:16:49.167Z,86.97
2019-01-29T11:19:20.575Z,86.61
2019-01-29T11:21:52.142Z,86.28
2019-01-29T11:24:23.632Z,86.21
2019-01-29T11:26:55.004Z,86.24
2019-01-29T11:29:26.719Z,86.42
2019-01-29T11:31:58.556Z,86.15
2019-01-29T11:34:30.320Z,85.05
2019-01-29T11:37:01.872Z,84.83
2019-01-29T11:39:33.840Z,84.36
2019-01-29T11:42:05.789Z,84.56
2019-01-29T11:44:37.563Z,84.26
2019-01-29T11:47:09.275Z,83.36
2019-01-29T11:49:41.118Z,82.76
2019-01-29T11:52:12.395Z,82.49
2019-01-29T11:54:43.892Z,82.52
2019-01-29T11:57:16.533Z,82.79
2019-01-29T11:59:48.050Z,82.30
2019-01-29T12:02:28.027Z,82.97
2019-01-29T12:04:52.527Z,84.08
2019-01-29T12:07:24.166Z,84.30
2019-01-29T12:09:56.596Z,84.46
2019-01-29T12:12:28.402Z,84.79
2019-01-29T12:15:00.214Z,85.21
2019-01-29T12:17:31.692Z,85.44
2019-01-29T12:20:03.374Z,85.84
2019-01-29T12:22:34.863Z,85.68
2019-01-29T12:25:06.726Z,84.96
2019-01-29T12:27:38.505Z,85.38
2019-01-29T12:30:14.662Z,84.97
2019-01-29T12:32:46.362Z,84.85
2019-01-29T12:35:17.915Z,84.97
2019-01-29T12:37:49.469Z,84.28
2019-01-29T12:40:21.080Z,84.48
2019-01-29T12:42:53.724Z,85.18
2019-01-29T12:45:25.434Z,85.96
2019-01-29T12:47:57.200Z,85.53
2019-01-29T12:50:29.161Z,85.77
2019-01-29T12:53:11.859Z,85.52
2019-01-29T12:55:43.433Z,85.26
2019-01-29T12:58:15.119Z,85.64
2019-01-29T13:00:49.655Z,85.34
2019-01-29T13:03:21.374Z,85.12
2019-01-29T13:05:53.326Z,85.09
2019-01-29T13:08:24.997Z,84.99
2019-01-29T13:10:56.560Z,84.73
2019-01-29T13:13:28.409Z,85.04
2019-01-29T13:16:00.212Z,85.08
2019-01-29T13:18:31.883Z,85.32
2019-01-29T13:21:03.529Z,85.36
2019-01-29T13:23:34.858Z,86.40
2019-01-29T13:26:06.435Z,86.17
2019-01-29T13:28:37.681Z,86.04
2019-01-29T13:31:09.339Z,86.10
2019-01-29T13:33:40.938Z,86.58
2019-01-29T13:36:13.466Z,87.08
2019-01-29T13:38:45.296Z,86.53
2019-01-29T13:41:17.185Z,86.35
2019-01-29T13:43:48.809Z,86.52
2019-01-29T13:46:20.733Z,86.72
2019-01-29T13:48:52.468Z,86.92
2019-01-29T13:51:24.174Z,86.50
2019-01-29T13:53:55.836Z,86.06
2019-01-29T13:56:27.578Z,85.80
2019-01-29T13:58:59.200Z,86.32
2019-01-29T14:01:32.039Z,86.70
2019-01-29T14:04:06.263Z,86.80
2019-01-29T14:06:37.065Z,86.81
2019-01-29T14:09:09.448Z,86.50
2019-01-29T14:11:41.241Z,86.41
2019-01-29T14:14:12.926Z,86.50
2019-01-29T14:16:44.385Z,86.72
2019-01-29T14:19:15.915Z,86.45
2019-01-29T14:21:47.393Z,86.24
2019-01-29T14:24:19.128Z,86.25
2019-01-29T14:26:50.700Z,86.30
2019-01-29T14:29:22.238Z,86.08
2019-01-29T14:31:53.817Z,86.31
2019-01-29T14:34:25.376Z,86.84
2019-01-29T14:36:56.899Z,86.93
2019-01-29T14:40:16.805Z,87.09
2019-01-29T14:42:49.838Z,87.22
2019-01-29T14:45:24.599Z,87.51
2019-01-29T14:47:57.090Z,87.66
2019-01-29T14:50:29.773Z,87.52
2019-01-29T14:53:01.211Z,87.43
2019-01-29T14:55:32.818Z,87.59
2019-01-29T14:58:04.355Z,87.75
2019-01-29T15:00:37.510Z,87.86
2019-01-29T15:03:11.348Z,87.88
2019-01-29T15:05:42.594Z,87.92
2019-01-29T15:08:14.259Z,87.86
2019-01-29T15:10:45.930Z,87.70
2019-01-29T15:13:17.373Z,87.64
2019-01-29T15:15:55.264Z,87.59
2019-01-29T15:18:32.743Z,87.64
2019-01-29T15:21:04.627Z,87.76
2019-01-29T15:23:36.136Z,88.19
2019-01-29T15:26:07.931Z,88.25
2019-01-29T15:28:39.624Z,88.41
2019-01-29T15:31:11.169Z,88.40
2019-01-29T15:33:42.664Z,88.47
2019-01-29T15:36:14.300Z,88.28
2019-01-29T15:38:45.608Z,88.06
2019-01-29T15:41:17.463Z,88.20
2019-01-29T15:43:49.385Z,88.50
2019-01-29T15:46:21.101Z,88.64
2019-01-29T15:48:53.988Z,88.67
2019-01-29T15:51:25.534Z,88.98
2019-01-29T15:53:57.249Z,89.25
2019-01-29T15:56:28.753Z,89.32
2019-01-29T15:59:00.476Z,89.30
2019-01-29T16:01:32.068Z,89.34
2019-01-29T16:04:03.711Z,89.48
2019-01-29T16:06:37.313Z,89.65
2019-01-29T16:09:10.777Z,89.87
2019-01-29T16:11:42.106Z,90.15
2019-01-29T16:14:13.886Z,90.22
2019-01-29T16:16:45.284Z,90.19
2019-01-29T16:19:16.875Z,90.00
2019-01-29T16:21:48.332Z,89.97
2019-01-29T16:24:19.666Z,90.32
2019-01-29T16:26:51.065Z,90.25
2019-01-29T16:29:22.546Z,90.26
2019-01-29T16:31:54.079Z,90.30
2019-01-29T16:34:25.447Z,90.27
2019-01-29T16:36:57.308Z,90.29
2019-01-29T16:39:28.840Z,90.30
2019-01-29T16:42:00.323Z,90.55
2019-01-29T16:44:31.711Z,90.57
2019-01-29T16:47:03.482Z,90.57
2019-01-29T16:49:34.954Z,90.51
2019-01-29T16:52:07.005Z,90.49
2019-01-29T16:54:38.880Z,90.41
2019-01-29T16:57:10.534Z,90.40
2019-01-29T16:59:42.196Z,90.86
2019-01-29T17:02:14.997Z,91.17
2019-01-29T17:04:46.348Z,91.33
2019-01-29T17:07:17.683Z,91.44
2019-01-29T17:09:49.393Z,91.41
2019-01-29T17:12:20.961Z,91.41
2019-01-29T17:14:52.449Z,91.67
2019-01-29T17:17:23.987Z,91.49
2019-01-29T17:19:56.324Z,91.13
2019-01-29T17:22:27.892Z,90.88
2019-01-29T17:24:59.184Z,90.97
2019-01-29T17:27:39.899Z,91.05
2019-01-29T17:30:06.996Z,90.98
2019-01-29T17:32:38.708Z,91.01
2019-01-29T17:35:10.464Z,91.09
2019-01-29T17:37:41.921Z,90.95
2019-01-29T17:40:14.644Z,90.73
2019-01-29T17:42:46.456Z,90.57
2019-01-29T17:45:20.902Z,90.46
2019-01-29T17:47:52.971Z,90.28
2019-01-29T17:50:26.668Z,90.26
2019-01-29T17:52:58.720Z,90.10
2019-01-29T17:55:31.648Z,89.90
2019-01-29T17:58:03.444Z,89.85
2019-01-29T18:00:36.355Z,89.70
2019-01-29T18:03:08.235Z,89.63
2019-01-29T18:05:40.020Z,89.62
2019-01-29T18:08:11.487Z,89.58
2019-01-29T18:10:43.157Z,89.43
2019-01-29T18:13:14.829Z,89.30
2019-01-29T18:15:46.490Z,89.06
2019-01-29T18:18:18.253Z,89.00
2019-01-29T18:20:49.642Z,88.81
2019-01-29T18:23:21.423Z,88.77
2019-01-29T18:25:53.257Z,88.87
2019-01-29T18:28:24.942Z,89.16
2019-01-29T18:30:56.482Z,89.57
2019-01-29T18:33:28.116Z,89.83
2019-01-29T18:35:59.592Z,89.82
2019-01-29T18:38:31.097Z,90.11
2019-01-29T18:41:03.043Z,90.29
2019-01-29T18:43:34.289Z,90.32
2019-01-29T18:46:05.905Z,90.31
2019-01-29T18:48:37.482Z,90.66
2019-01-29T18:51:09.070Z,91.27
2019-01-29T18:53:40.745Z,91.69
2019-01-29T18:56:12.117Z,91.92
2019-01-29T18:58:44.031Z,92.03
2019-01-29T19:01:15.844Z,92.15
2019-01-29T19:03:49.699Z,92.23
2019-01-29T19:06:20.563Z,91.96
2019-01-29T19:08:52.186Z,92.47
2019-01-29T19:11:23.843Z,92.90
2019-01-29T19:13:55.244Z,93.36
2019-01-29T19:16:26.661Z,93.68
2019-01-29T19:18:58.311Z,93.86
2019-01-29T19:21:30.039Z,93.92
2019-01-29T19:24:01.619Z,93.78
2019-01-29T19:26:33.239Z,93.35
2019-01-29T19:29:06.532Z,93.15
2019-01-29T19:31:38.102Z,92.91
2019-01-29T19:34:11.160Z,92.47
2019-01-29T19:36:42.719Z,92.13
2019-01-29T19:39:14.546Z,91.89
2019-01-29T19:41:46.138Z,91.71
2019-01-29T19:44:17.616Z,91.60
2019-01-29T19:46:50.036Z,91.33
2019-01-29T19:49:21.550Z,91.09
2019-01-29T19:51:53.355Z,91.13
2019-01-29T19:54:25.048Z,90.85
2019-01-29T19:56:56.505Z,90.64
2019-01-29T19:59:28.051Z,90.11
2019-01-29T20:01:59.825Z,89.45
2019-01-29T20:04:31.532Z,89.11
2019-01-29T20:07:03.418Z,89.56
2019-01-29T20:09:34.965Z,89.91
2019-01-29T20:12:06.756Z,89.98
2019-01-29T20:14:38.508Z,89.79
2019-01-29T20:17:10.108Z,89.80
2019-01-29T20:19:41.799Z,90.20
2019-01-29T20:22:13.659Z,90.70
2019-01-29T20:24:45.249Z,91.26
2019-01-29T20:27:17.886Z,91.39
2019-01-29T20:29:49.531Z,91.43
2019-01-29T20:32:21.397Z,91.69
2019-01-29T20:34:53.072Z,91.57
2019-01-29T20:37:24.631Z,91.59
2019-01-29T20:39:55.951Z,91.32
2019-01-29T20:42:27.382Z,91.19
2019-01-29T20:44:58.770Z,91.32
2019-01-29T20:47:30.147Z,91.02
2019-01-29T20:50:01.588Z,90.55
2019-01-29T20:52:33.102Z,90.70
2019-01-29T20:55:04.535Z,90.95
2019-01-29T20:57:35.851Z,91.65
2019-01-29T21:00:17.403Z,91.70
2019-01-29T21:02:48.983Z,91.12
2019-01-29T21:05:20.694Z,91.04
2019-01-29T21:07:52.243Z,90.94
2019-01-29T21:10:23.847Z,91.05
2019-01-29T21:12:55.679Z,90.86
2019-01-29T21:15:37.654Z,90.78
2019-01-29T21:18:00.303Z,91.10
2019-01-29T21:20:32.308Z,90.89
2019-01-29T21:23:03.698Z,90.72
2019-01-29T21:25:35.491Z,90.80
2019-01-29T21:28:07.096Z,90.91
2019-01-29T21:30:43.661Z,91.07
2019-01-29T21:33:14.096Z,91.05
2019-01-29T21:35:45.802Z,91.02
2019-01-29T21:38:17.608Z,91.34
2019-01-29T21:40:49.257Z,92.07
2019-01-29T21:43:20.870Z,92.32
2019-01-29T21:45:53.666Z,92.15
2019-01-29T21:48:25.084Z,92.01
2019-01-29T21:50:56.454Z,91.92
2019-01-29T21:53:27.857Z,91.70
2019-01-29T21:55:59.294Z,91.66
2019-01-29T21:58:31.154Z,91.59
2019-01-29T22:01:02.987Z,91.65
2019-01-29T22:03:34.776Z,91.38
2019-01-29T22:06:06.652Z,91.33
2019-01-29T22:08:38.177Z,91.34
2019-01-29T22:11:09.923Z,91.33
2019-01-29T22:14:08.912Z,91.33
2019-01-29T22:17:04.687Z,91.75
2019-01-29T22:19:45.245Z,92.24
2019-01-29T22:22:38.110Z,92.42
2019-01-29T22:25:14.001Z,92.63
2019-01-29T22:27:46.558Z,92.75
2019-01-29T22:30:26.837Z,92.71
2019-01-29T22:32:58.428Z,92.64
2019-01-29T22:35:29.918Z,92.60
2019-01-29T22:38:01.688Z,92.37
2019-01-29T22:40:33.723Z,91.78
2019-01-29T22:43:06.114Z,92.43
2019-01-29T22:45:37.889Z,92.28
2019-01-29T22:48:09.960Z,91.96
2019-01-29T22:50:43.194Z,91.77
2019-01-29T22:53:14.858Z,91.76
2019-01-29T22:55:46.664Z,92.20
2019-01-29T22:58:18.179Z,92.00
2019-01-29T23:01:33.871Z,92.37
2019-01-29T23:04:44.761Z,92.77
2019-01-29T23:07:21.911Z,92.98
2019-01-29T23:09:53.395Z,93.37
2019-01-29T23:12:24.995Z,93.51
2019-01-29T23:14:56.580Z,94.15
2019-01-29T23:17:28.329Z,94.28
2019-01-29T23:19:59.712Z,94.55
2019-01-29T23:22:31.136Z,95.05
2019-01-29T23:25:02.511Z,95.28
2019-01-29T23:27:34.458Z,95.36
2019-01-29T23:30:08.224Z,95.30
2019-01-29T23:32:39.861Z,95.18
2019-01-29T23:35:11.427Z,95.09
2019-01-29T23:37:42.913Z,95.02
2019-01-29T23:40:15.162Z,95.05
2019-01-29T23:42:46.708Z,94.87
2019-01-29T23:45:18.571Z,94.74
2019-01-29T23:48:00.625Z,94.51
2019-01-29T23:50:32.638Z,94.48
2019-01-29T23:53:04.191Z,94.88
2019-01-29T23:55:35.679Z,95.00
2019-01-29T23:58:07.553Z,95.07
